Time;durP1;ratioP1;P1;durP2;ratioP2;P2;SDS_P1;SDS_P2;PMS_P1;PMS_P2;Temp;Humidity;BMP_temperature;BMP_pressure;BME280_temperature;BME280_humidity;BME280_pressure;Samples;Min_cycle;Max_cycle;Signal;HPM_P1;HPM_P2
2021/08/20 00:00:44;;;;;;;6.70;6.10;;;17.80;99.90;;;;;;4908858;29;20217;-79
2021/08/20 00:03:11;;;;;;;5.57;5.17;;;17.80;99.90;;;;;;4906709;29;20214;-79
2021/08/20 00:05:38;;;;;;;5.77;5.17;;;17.80;99.90;;;;;;4907023;29;20214;-79
2021/08/20 00:08:05;;;;;;;5.20;4.80;;;17.80;99.90;;;;;;4924406;29;20627;-79
2021/08/20 00:10:32;;;;;;;6.07;5.67;;;17.80;99.90;;;;;;4920746;29;20241;-78
2021/08/20 00:13:00;;;;;;;6.80;6.30;;;17.80;99.90;;;;;;4915851;29;20271;-79
2021/08/20 00:15:28;;;;;;;5.90;5.40;;;17.80;99.90;;;;;;4904429;29;20835;-78
2021/08/20 00:17:55;;;;;;;7.33;6.73;;;17.70;99.90;;;;;;4909934;29;20268;-79
2021/08/20 00:20:22;;;;;;;5.87;5.47;;;17.70;99.90;;;;;;4917413;29;20228;-79
2021/08/20 00:22:49;;;;;;;6.50;6.00;;;17.60;99.90;;;;;;4922915;29;20213;-79
2021/08/20 00:25:16;;;;;;;6.90;6.30;;;17.60;99.90;;;;;;4921850;29;20264;-79
2021/08/20 00:27:43;;;;;;;6.50;6.00;;;17.60;99.90;;;;;;4912364;29;20209;-78
2021/08/20 00:30:12;;;;;;;4.07;3.10;;;17.60;99.90;;;;;;4910397;29;20456;-78
2021/08/20 00:32:39;;;;;;;3.80;3.40;;;17.60;99.90;;;;;;4901492;29;20206;-79
2021/08/20 00:35:07;;;;;;;3.53;3.20;;;17.60;99.90;;;;;;4906746;29;20208;-79
2021/08/20 00:37:35;;;;;;;4.17;3.20;;;17.60;99.90;;;;;;4908423;29;20211;-78
2021/08/20 00:40:04;;;;;;;3.40;3.10;;;17.60;99.90;;;;;;4905257;29;20289;-79
2021/08/20 00:42:30;;;;;;;5.70;5.20;;;17.60;99.90;;;;;;4909049;29;20197;-78
2021/08/20 00:44:57;;;;;;;6.67;6.07;;;17.60;99.90;;;;;;4904011;29;20211;-79
2021/08/20 00:47:26;;;;;;;5.83;5.43;;;17.60;99.90;;;;;;4908778;29;20220;-79
2021/08/20 00:49:52;;;;;;;6.40;5.87;;;17.60;99.90;;;;;;4901576;29;20269;-79
2021/08/20 00:52:20;;;;;;;6.33;5.83;;;17.60;99.90;;;;;;4909164;29;20228;-79
2021/08/20 00:54:48;;;;;;;6.50;5.90;;;17.60;99.90;;;;;;4907980;29;20218;-79
2021/08/20 00:57:16;;;;;;;5.10;4.70;;;17.50;99.90;;;;;;4905228;29;20265;-78
2021/08/20 00:59:45;;;;;;;5.80;5.30;;;17.50;99.90;;;;;;4907019;29;20233;-79
2021/08/20 01:02:12;;;;;;;5.00;3.73;;;17.50;99.90;;;;;;4906541;29;20227;-78
2021/08/20 01:04:42;;;;;;;8.50;7.80;;;17.50;99.90;;;;;;4906530;29;20591;-78
2021/08/20 01:07:09;;;;;;;7.00;6.50;;;17.50;99.90;;;;;;4911999;29;20218;-79
2021/08/20 01:09:38;;;;;;;7.37;6.77;;;17.50;99.90;;;;;;4911633;29;20227;-78
2021/08/20 01:12:06;;;;;;;6.10;5.57;;;17.40;99.90;;;;;;4906029;29;20293;-78
2021/08/20 01:14:35;;;;;;;7.57;7.00;;;17.40;99.90;;;;;;4905356;29;20257;-79
2021/08/20 01:17:04;;;;;;;6.90;6.40;;;17.40;99.90;;;;;;4907286;29;20201;-78
2021/08/20 01:19:32;;;;;;;5.50;5.00;;;17.40;99.90;;;;;;4927969;29;20206;-78
2021/08/20 01:22:03;;;;;;;4.63;4.33;;;17.50;99.90;;;;;;4904996;29;20217;-79
2021/08/20 01:24:33;;;;;;;4.80;4.40;;;17.50;99.90;;;;;;4910772;29;20343;-79
2021/08/20 01:27:05;;;;;;;4.83;4.43;;;17.50;99.90;;;;;;4907061;29;20221;-78
2021/08/20 01:29:33;;;;;;;5.27;4.83;;;17.50;99.90;;;;;;4908335;29;20203;-79
2021/08/20 01:32:02;;;;;;;6.63;6.13;;;17.50;99.90;;;;;;4907476;29;20224;-78
2021/08/20 01:34:29;;;;;;;6.43;6.03;;;17.50;99.90;;;;;;4908339;29;20212;-78
2021/08/20 01:36:57;;;;;;;6.87;6.30;;;17.50;99.90;;;;;;4923361;29;20264;-78
2021/08/20 01:39:23;;;;;;;6.70;6.13;;;17.50;99.90;;;;;;4931580;29;20238;-78
2021/08/20 01:41:50;;;;;;;7.40;6.80;;;17.50;99.90;;;;;;4905570;29;20226;-78
2021/08/20 01:44:19;;;;;;;7.40;6.90;;;17.50;99.90;;;;;;4907267;29;20687;-79
2021/08/20 01:46:47;;;;;;;7.30;6.60;;;17.40;99.90;;;;;;4910753;29;20201;-78
2021/08/20 01:49:14;;;;;;;6.63;6.13;;;17.40;99.90;;;;;;4909139;29;20205;-78
2021/08/20 01:51:40;;;;;;;6.60;6.10;;;17.40;99.90;;;;;;4908947;29;20230;-78
2021/08/20 01:54:07;;;;;;;6.47;5.97;;;17.40;99.90;;;;;;4925936;29;20296;-78
2021/08/20 01:56:36;;;;;;;7.83;7.33;;;17.40;99.90;;;;;;4900796;29;20566;-79
2021/08/20 01:59:13;;;;;;;7.17;6.57;;;17.40;99.90;;;;;;4912784;29;20225;-78
2021/08/20 02:01:42;;;;;;;6.50;5.90;;;17.40;99.90;;;;;;4909826;29;20225;-78
2021/08/20 02:04:09;;;;;;;5.83;5.33;;;17.40;99.90;;;;;;4924806;29;20205;-78
2021/08/20 02:06:36;;;;;;;6.30;5.80;;;17.40;99.90;;;;;;4925718;29;20212;-78
2021/08/20 02:09:05;;;;;;;6.83;6.23;;;17.30;99.90;;;;;;4904202;29;20210;-78
2021/08/20 02:11:34;;;;;;;7.83;7.10;;;17.40;99.90;;;;;;4907425;29;20230;-79
2021/08/20 02:14:02;;;;;;;7.73;7.13;;;17.40;99.90;;;;;;4908231;29;20200;-79
2021/08/20 02:16:32;;;;;;;7.50;6.90;;;17.30;99.90;;;;;;4920409;29;20203;-78
2021/08/20 02:19:04;;;;;;;7.20;6.67;;;17.30;99.90;;;;;;4920204;29;20289;-78
2021/08/20 02:21:31;;;;;;;7.03;6.53;;;17.30;99.90;;;;;;4907405;29;20221;-79
2021/08/20 02:24:04;;;;;;;7.20;6.70;;;17.30;99.90;;;;;;4904997;29;20220;-78
2021/08/20 02:26:33;;;;;;;6.97;6.47;;;17.30;99.90;;;;;;4904447;29;20223;-79
2021/08/20 02:29:01;;;;;;;5.60;5.10;;;17.30;99.90;;;;;;4908551;29;20264;-78
2021/08/20 02:31:28;;;;;;;5.67;5.27;;;17.30;99.90;;;;;;4909030;29;20232;-78
2021/08/20 02:33:55;;;;;;;5.33;4.93;;;17.30;99.90;;;;;;4905694;29;20722;-79
2021/08/20 02:36:26;;;;;;;5.93;5.43;;;17.30;99.90;;;;;;4906401;29;20205;-79
2021/08/20 02:38:55;;;;;;;5.80;5.30;;;17.30;99.90;;;;;;4927105;29;20232;-82
2021/08/20 02:41:21;;;;;;;5.63;5.13;;;17.30;99.90;;;;;;4915020;29;20220;-79
2021/08/20 02:43:49;;;;;;;5.03;4.73;;;17.20;99.90;;;;;;4907283;29;20229;-82
2021/08/20 02:46:16;;;;;;;5.57;5.07;;;17.30;99.90;;;;;;4921626;29;20218;-83
2021/08/20 02:48:44;;;;;;;5.53;5.13;;;17.30;99.90;;;;;;4921432;29;20737;-79
2021/08/20 02:51:13;;;;;;;5.63;4.93;;;17.30;99.90;;;;;;4914170;29;20229;-78
2021/08/20 02:53:42;;;;;;;5.40;5.00;;;17.30;99.90;;;;;;4917836;29;20203;-79
2021/08/20 02:56:10;;;;;;;5.43;5.03;;;17.20;99.90;;;;;;4913201;29;20641;-81
2021/08/20 02:58:51;;;;;;;5.57;5.17;;;17.30;99.90;;;;;;4905935;29;20238;-80
2021/08/20 03:01:18;;;;;;;5.33;4.97;;;17.20;99.90;;;;;;4909243;29;20357;-80
2021/08/20 03:03:45;;;;;;;5.33;4.93;;;17.20;99.90;;;;;;4903346;29;20708;-80
2021/08/20 03:06:20;;;;;;;5.60;5.17;;;17.20;99.90;;;;;;4905043;29;20205;-80
2021/08/20 03:08:48;;;;;;;5.73;5.33;;;17.20;99.90;;;;;;4901924;29;20208;-80
2021/08/20 03:11:17;;;;;;;5.40;5.00;;;17.20;99.90;;;;;;4906675;29;20230;-79
2021/08/20 03:13:44;;;;;;;8.60;7.90;;;17.20;99.90;;;;;;4906295;29;20579;-78
2021/08/20 03:16:11;;;;;;;10.03;9.33;;;17.20;99.90;;;;;;4908835;29;20210;-80
2021/08/20 03:18:38;;;;;;;8.87;8.27;;;17.20;99.90;;;;;;4907559;29;20204;-80
2021/08/20 03:21:12;;;;;;;8.30;7.70;;;17.20;99.90;;;;;;4924271;29;20224;-80
2021/08/20 03:23:50;;;;;;;8.80;8.20;;;17.20;99.90;;;;;;4920397;29;20275;-80
2021/08/20 03:26:18;;;;;;;8.37;7.30;;;17.20;99.90;;;;;;4906375;29;20197;-79
2021/08/20 03:28:52;;;;;;;7.47;6.83;;;17.20;99.90;;;;;;4904917;29;20213;-80
2021/08/20 03:31:19;;;;;;;7.50;7.00;;;17.20;99.90;;;;;;4909167;29;20233;-80
2021/08/20 03:33:46;;;;;;;7.00;6.40;;;17.20;99.90;;;;;;4927014;29;20210;-79
2021/08/20 03:36:18;;;;;;;6.50;6.00;;;17.20;99.90;;;;;;4931059;29;20209;-80
2021/08/20 03:38:51;;;;;;;7.17;6.57;;;17.20;99.90;;;;;;4906739;29;20204;-80
2021/08/20 03:41:18;;;;;;;6.67;6.07;;;17.20;99.90;;;;;;4910828;29;20244;-80
2021/08/20 03:44:05;;;;;;;6.50;6.00;;;17.20;99.90;;;;;;4907308;29;20586;-80
2021/08/20 03:46:38;;;;;;;6.33;5.93;;;17.20;99.90;;;;;;4906084;29;20196;-81
2021/08/20 03:49:05;;;;;;;6.77;6.10;;;17.20;99.90;;;;;;4906177;29;20260;-80
2021/08/20 03:51:32;;;;;;;9.13;8.33;;;17.10;99.90;;;;;;4906044;29;20233;-80
2021/08/20 03:54:02;;;;;;;9.20;8.50;;;17.20;99.90;;;;;;4902482;29;20208;-79
2021/08/20 03:56:30;;;;;;;8.43;7.83;;;17.20;99.90;;;;;;4922046;29;20697;-80
2021/08/20 03:59:03;;;;;;;9.53;8.93;;;17.20;99.90;;;;;;4903158;29;20226;-80
2021/08/20 04:01:31;;;;;;;8.63;8.03;;;17.20;99.90;;;;;;4908096;29;20246;-80
2021/08/20 04:04:01;;;;;;;8.30;7.77;;;17.10;99.90;;;;;;4922798;29;20209;-78
2021/08/20 04:06:46;;;;;;;8.33;7.80;;;17.10;99.90;;;;;;4919566;29;20207;-80
2021/08/20 04:09:15;;;;;;;8.07;7.37;;;17.10;99.90;;;;;;4905725;29;20208;-80
2021/08/20 04:12:21;;;;;;;7.30;6.80;;;17.10;99.90;;;;;;4901415;29;20375;-79
2021/08/20 04:14:54;;;;;;;9.63;9.03;;;17.10;99.90;;;;;;4934312;29;20209;-79
2021/08/20 04:18:01;;;;;;;10.20;9.37;;;17.10;99.90;;;;;;4913991;29;20235;-83
2021/08/20 04:23:50;;;;;;;9.90;9.30;;;17.00;99.90;;;;;;4935513;23;20237;-80
2021/08/20 04:26:19;;;;;;;9.33;8.73;;;17.00;99.90;;;;;;4933245;29;20234;-80
2021/08/20 04:29:08;;;;;;;8.30;7.77;;;17.00;99.90;;;;;;4929550;29;20238;-79
2021/08/20 04:31:56;;;;;;;8.20;7.70;;;17.00;99.90;;;;;;4920913;29;20231;-81
2021/08/20 04:34:49;;;;;;;7.87;7.33;;;17.00;99.90;;;;;;4916090;29;20289;-79
2021/08/20 04:37:35;;;;;;;7.13;6.60;;;17.00;99.90;;;;;;4918021;29;20779;-79
2021/08/20 04:40:38;;;;;;;6.67;6.27;;;17.00;99.90;;;;;;4921518;29;20226;-82
2021/08/20 04:43:49;;;;;;;7.67;7.07;;;16.90;99.90;;;;;;4922137;29;20301;-83
2021/08/20 04:46:42;;;;;;;9.00;8.40;;;17.00;99.90;;;;;;4917197;29;20301;-83
2021/08/20 04:49:44;;;;;;;9.10;8.50;;;17.10;99.90;;;;;;4916152;29;20212;-77
2021/08/20 04:52:35;;;;;;;9.10;8.50;;;17.10;99.90;;;;;;4896976;29;20256;-79
2021/08/20 04:55:37;;;;;;;8.00;7.20;;;17.20;99.90;;;;;;4922685;29;20196;-78
2021/08/20 04:58:04;;;;;;;7.27;6.67;;;17.20;99.90;;;;;;4916703;29;20587;-79
2021/08/20 05:00:32;;;;;;;9.60;9.00;;;17.20;99.90;;;;;;4916784;29;20297;-79
2021/08/20 05:02:59;;;;;;;9.53;8.93;;;17.20;99.90;;;;;;4916809;29;20206;-79
2021/08/20 05:05:27;;;;;;;8.60;8.00;;;17.30;99.90;;;;;;4918001;29;20210;-79
2021/08/20 05:07:54;;;;;;;9.10;8.50;;;17.30;99.90;;;;;;4916108;29;20217;-79
2021/08/20 05:10:21;;;;;;;9.33;8.73;;;17.30;99.90;;;;;;4916491;29;20230;-79
2021/08/20 05:12:48;;;;;;;8.30;7.70;;;17.40;99.90;;;;;;4911973;29;20227;-79
2021/08/20 05:15:15;;;;;;;9.10;8.60;;;17.40;99.90;;;;;;4916634;29;20273;-79
2021/08/20 05:17:43;;;;;;;10.07;9.43;;;17.40;99.90;;;;;;4916272;29;20210;-79
2021/08/20 05:20:11;;;;;;;8.57;8.00;;;17.40;99.90;;;;;;4917618;29;20208;-79
2021/08/20 05:22:47;;;;;;;7.80;7.20;;;17.50;99.90;;;;;;4917683;29;20223;-80
2021/08/20 05:25:15;;;;;;;5.87;5.47;;;17.50;99.90;;;;;;4916096;29;20302;-80
2021/08/20 05:27:43;;;;;;;6.30;5.90;;;17.60;99.90;;;;;;4917216;29;20205;-78
2021/08/20 05:30:11;;;;;;;7.93;7.33;;;17.60;99.90;;;;;;4918111;29;20848;-83
2021/08/20 05:32:39;;;;;;;5.60;5.13;;;17.70;99.90;;;;;;4914449;29;20214;-83
2021/08/20 05:35:09;;;;;;;3.30;3.00;;;17.70;99.90;;;;;;4917877;29;20207;-82
2021/08/20 05:37:36;;;;;;;5.90;5.43;;;17.80;99.90;;;;;;4935998;29;20201;-82
2021/08/20 05:40:04;;;;;;;4.87;4.47;;;17.80;99.90;;;;;;4920904;29;20211;-82
2021/08/20 05:42:31;;;;;;;6.80;6.30;;;17.80;99.90;;;;;;4916431;29;20198;-83
2021/08/20 05:44:58;;;;;;;5.10;4.70;;;17.90;99.90;;;;;;4909807;29;20210;-82
2021/08/20 05:47:25;;;;;;;9.00;8.40;;;18.00;99.90;;;;;;4914488;29;20206;-83
2021/08/20 05:49:52;;;;;;;9.87;9.27;;;18.10;99.90;;;;;;4914494;29;20199;-84
2021/08/20 05:52:21;;;;;;;9.77;9.17;;;18.20;99.90;;;;;;4924080;29;20314;-83
2021/08/20 05:54:47;;;;;;;9.50;8.80;;;18.30;99.90;;;;;;4920096;29;20257;-85
2021/08/20 05:57:14;;;;;;;7.03;6.53;;;18.40;99.90;;;;;;4915892;29;20204;-81
2021/08/20 05:59:41;;;;;;;9.80;9.10;;;18.40;99.90;;;;;;4914448;29;20213;-79
2021/08/20 06:02:08;;;;;;;9.80;9.20;;;18.50;99.90;;;;;;4915609;29;20283;-79
2021/08/20 06:04:36;;;;;;;11.20;10.50;;;18.50;99.90;;;;;;4915076;29;20192;-79
2021/08/20 06:07:03;;;;;;;9.67;9.07;;;18.60;99.90;;;;;;4914767;29;20287;-79
2021/08/20 06:09:33;;;;;;;10.13;9.53;;;18.70;99.90;;;;;;4914807;29;20579;-81
2021/08/20 06:12:00;;;;;;;10.37;9.77;;;18.90;99.90;;;;;;4928437;29;20235;-79
2021/08/20 06:14:27;;;;;;;10.03;9.43;;;19.00;99.90;;;;;;4916240;29;20248;-79
2021/08/20 06:16:55;;;;;;;10.70;10.00;;;19.20;99.90;;;;;;4913038;29;20212;-81
2021/08/20 06:19:22;;;;;;;9.87;9.27;;;19.30;99.90;;;;;;4921024;29;20204;-79
2021/08/20 06:21:49;;;;;;;9.00;8.40;;;19.50;99.90;;;;;;4912830;29;20284;-78
2021/08/20 06:24:16;;;;;;;11.50;10.80;;;19.60;99.90;;;;;;4914626;29;20197;-79
2021/08/20 06:26:45;;;;;;;8.27;7.77;;;19.80;99.90;;;;;;4915625;29;20287;-79
2021/08/20 06:29:13;;;;;;;8.40;7.80;;;19.90;99.90;;;;;;4914107;29;20201;-77
2021/08/20 06:31:41;;;;;;;9.30;8.60;;;20.20;99.90;;;;;;4915853;29;20228;-79
2021/08/20 06:34:08;;;;;;;7.53;7.03;;;20.30;99.90;;;;;;4919062;29;20598;-79
2021/08/20 06:36:34;;;;;;;9.97;9.37;;;20.40;99.90;;;;;;4915233;29;20210;-79
2021/08/20 06:39:01;;;;;;;7.87;7.27;;;20.50;99.90;;;;;;4913005;29;20266;-78
2021/08/20 06:41:28;;;;;;;6.20;5.70;;;20.60;99.90;;;;;;4914553;29;20607;-79
2021/08/20 06:43:58;;;;;;;8.30;7.80;;;20.80;99.90;;;;;;4914301;29;20214;-81
2021/08/20 06:46:24;;;;;;;8.67;8.07;;;20.90;99.90;;;;;;4915315;29;20195;-79
2021/08/20 06:48:51;;;;;;;7.07;6.57;;;21.00;99.90;;;;;;4915285;29;20202;-79
2021/08/20 06:51:18;;;;;;;6.13;5.73;;;21.10;99.90;;;;;;4913335;29;20280;-80
2021/08/20 06:53:45;;;;;;;9.80;9.20;;;21.10;99.90;;;;;;4915585;29;20207;-78
2021/08/20 06:56:12;;;;;;;10.00;9.40;;;21.10;99.90;;;;;;4914077;29;20210;-81
2021/08/20 06:58:38;;;;;;;8.40;7.80;;;21.10;99.90;;;;;;4915000;29;20646;-79
2021/08/20 07:01:07;;;;;;;4.13;3.70;;;21.10;99.90;;;;;;4911571;29;20612;-79
2021/08/20 07:03:34;;;;;;;3.93;3.60;;;21.20;99.90;;;;;;4912092;29;20212;-81
2021/08/20 07:06:01;;;;;;;6.40;6.00;;;21.20;99.90;;;;;;4911721;29;20570;-79
2021/08/20 07:08:28;;;;;;;8.10;7.33;;;21.30;99.90;;;;;;4912719;29;20207;-81
2021/08/20 07:10:55;;;;;;;5.83;4.60;;;21.40;99.90;;;;;;4913887;29;20273;-81
2021/08/20 07:13:21;;;;;;;3.53;3.20;;;21.40;99.90;;;;;;4914248;29;20227;-81
2021/08/20 07:15:48;;;;;;;4.90;4.50;;;21.40;99.90;;;;;;4911126;29;20219;-81
2021/08/20 07:18:16;;;;;;;4.03;3.20;;;21.40;99.90;;;;;;4908888;29;20228;-82
2021/08/20 07:20:43;;;;;;;8.53;7.90;;;21.50;99.90;;;;;;4912291;29;20232;-80
2021/08/20 07:23:10;;;;;;;3.80;3.40;;;21.60;99.90;;;;;;4914226;29;20212;-80
2021/08/20 07:25:37;;;;;;;10.00;9.37;;;21.80;99.90;;;;;;4915800;29;20628;-81
2021/08/20 07:28:04;;;;;;;7.90;7.40;;;21.90;99.90;;;;;;4912428;29;20260;-81
2021/08/20 07:30:31;;;;;;;9.00;8.50;;;22.10;99.90;;;;;;4914300;29;20579;-81
2021/08/20 07:32:58;;;;;;;6.60;6.10;;;22.50;99.90;;;;;;4906696;29;20235;-81
2021/08/20 07:35:26;;;;;;;8.57;7.97;;;22.80;99.90;;;;;;4915386;29;20231;-81
2021/08/20 07:37:53;;;;;;;10.10;9.27;;;23.20;99.90;;;;;;4911471;29;20215;-81
2021/08/20 07:40:19;;;;;;;11.53;10.83;;;23.60;99.90;;;;;;4915447;29;20797;-80
2021/08/20 07:42:46;;;;;;;9.37;8.67;;;23.80;99.90;;;;;;4912167;29;20199;-80
2021/08/20 07:45:14;;;;;;;9.87;9.17;;;24.20;99.90;;;;;;4914506;29;20738;-81
2021/08/20 07:47:45;;;;;;;8.43;7.83;;;24.40;99.90;;;;;;4912794;29;20246;-80
2021/08/20 07:50:12;;;;;;;9.00;8.30;;;24.40;99.90;;;;;;4911606;29;20227;-81
2021/08/20 07:52:40;;;;;;;9.27;8.67;;;24.30;99.90;;;;;;4913666;29;20223;-80
2021/08/20 07:55:08;;;;;;;4.53;4.23;;;24.00;99.90;;;;;;4910274;29;20207;-80
2021/08/20 07:57:45;;;;;;;4.37;3.40;;;24.10;99.90;;;;;;4911426;29;20686;-80
2021/08/20 08:00:13;;;;;;;3.83;3.10;;;24.60;99.90;;;;;;4912898;29;20634;-81
2021/08/20 08:02:40;;;;;;;10.30;9.67;;;24.70;99.90;;;;;;4914303;29;20606;-80
2021/08/20 08:05:08;;;;;;;7.57;6.97;;;24.60;99.90;;;;;;4918810;29;20210;-81
2021/08/20 08:07:34;;;;;;;9.07;8.47;;;24.90;99.90;;;;;;4917857;29;20234;-80
2021/08/20 08:10:04;;;;;;;5.90;4.93;;;25.00;99.90;;;;;;4918634;29;20262;-81
2021/08/20 08:12:30;;;;;;;4.50;4.10;;;25.10;99.90;;;;;;4917468;29;20219;-81
2021/08/20 08:14:57;;;;;;;7.73;7.23;;;25.20;99.90;;;;;;4909833;29;20210;-81
2021/08/20 08:17:24;;;;;;;9.13;8.43;;;25.10;99.90;;;;;;4917496;29;20259;-81
2021/08/20 08:19:51;;;;;;;7.10;6.60;;;24.90;99.90;;;;;;4916800;29;20265;-82
2021/08/20 08:22:18;;;;;;;7.60;6.93;;;25.10;99.90;;;;;;4917795;29;20731;-81
2021/08/20 08:24:44;;;;;;;7.50;6.90;;;25.10;99.90;;;;;;4914015;29;20211;-80
2021/08/20 08:27:13;;;;;;;8.70;8.10;;;24.90;99.90;;;;;;4915629;29;20627;-81
2021/08/20 08:29:39;;;;;;;8.90;8.30;;;25.10;99.90;;;;;;4917153;29;20232;-81
2021/08/20 08:32:07;;;;;;;8.20;7.60;;;25.30;99.90;;;;;;4917052;29;20220;-81
2021/08/20 08:34:34;;;;;;;7.43;6.90;;;25.30;99.90;;;;;;4916883;29;20268;-81
2021/08/20 08:37:00;;;;;;;9.23;8.63;;;25.50;99.90;;;;;;4914715;29;20207;-81
2021/08/20 08:39:27;;;;;;;7.53;7.03;;;25.80;99.90;;;;;;4916099;29;20208;-82
2021/08/20 08:41:54;;;;;;;7.97;7.30;;;26.00;99.90;;;;;;4917949;29;20279;-81
2021/08/20 08:44:22;;;;;;;8.60;8.00;;;26.00;99.90;;;;;;4913722;29;20215;-81
2021/08/20 08:46:51;;;;;;;9.30;8.70;;;26.20;99.90;;;;;;4916016;29;20200;-81
2021/08/20 08:49:21;;;;;;;9.40;8.80;;;26.50;99.90;;;;;;4915838;29;20255;-81
2021/08/20 08:51:48;;;;;;;9.23;8.63;;;26.90;99.90;;;;;;4919386;29;20212;-81
2021/08/20 08:54:16;;;;;;;9.80;9.10;;;27.10;99.90;;;;;;4922149;29;20208;-81
2021/08/20 08:56:43;;;;;;;5.17;4.77;;;26.80;99.90;;;;;;4918717;29;20259;-82
2021/08/20 08:59:10;;;;;;;4.57;3.73;;;26.40;99.90;;;;;;4917170;29;20726;-80
2021/08/20 09:01:39;;;;;;;8.80;8.00;;;26.00;99.90;;;;;;4917285;29;20232;-80
2021/08/20 09:04:16;;;;;;;5.30;4.40;;;25.50;99.90;;;;;;4916375;29;20697;-82
2021/08/20 09:06:45;;;;;;;8.73;8.13;;;25.10;99.90;;;;;;4915020;29;20203;-79
2021/08/20 09:09:12;;;;;;;7.27;6.77;;;25.00;99.90;;;;;;4916663;29;20681;-82
2021/08/20 09:11:41;;;;;;;8.87;8.27;;;24.80;99.90;;;;;;4911950;29;20764;-79
2021/08/20 09:14:11;;;;;;;2.97;2.67;;;24.80;99.90;;;;;;4923530;29;20204;-80
2021/08/20 09:16:42;;;;;;;3.00;2.80;;;25.40;99.90;;;;;;4909100;29;20599;-79
2021/08/20 09:19:13;;;;;;;3.23;2.93;;;26.10;99.90;;;;;;4918104;29;20685;-80
2021/08/20 09:21:41;;;;;;;3.30;3.00;;;26.60;99.90;;;;;;4913086;29;20740;-80
2021/08/20 09:24:30;;;;;;;4.43;2.90;;;26.80;99.90;;;;;;4915547;29;20215;-82
2021/08/20 09:27:18;;;;;;;3.10;2.90;;;27.10;99.90;;;;;;4918559;29;20260;-81
2021/08/20 09:29:55;;;;;;;3.40;3.10;;;27.60;99.90;;;;;;4917056;29;20214;-83
2021/08/20 09:32:24;;;;;;;3.10;2.90;;;27.50;99.90;;;;;;4915523;29;20223;-79
2021/08/20 09:34:52;;;;;;;7.90;7.30;;;27.30;99.90;;;;;;4917929;29;20210;-82
2021/08/20 09:37:21;;;;;;;6.77;6.27;;;26.90;99.90;;;;;;4919932;29;20311;-82
2021/08/20 09:39:49;;;;;;;8.70;8.10;;;26.60;99.90;;;;;;4918003;29;20447;-83
2021/08/20 09:42:18;;;;;;;3.73;3.43;;;26.40;99.90;;;;;;4917236;29;20251;-81
2021/08/20 09:44:45;;;;;;;3.93;3.47;;;26.90;99.90;;;;;;4916904;29;20688;-81
2021/08/20 09:47:12;;;;;;;6.43;5.93;;;27.30;99.90;;;;;;4915645;29;20207;-82
2021/08/20 09:50:02;;;;;;;7.37;6.97;;;27.50;99.90;;;;;;4915522;29;20673;-82
2021/08/20 09:52:30;;;;;;;3.43;3.13;;;27.80;99.90;;;;;;4915005;29;20220;-82
2021/08/20 09:54:57;;;;;;;4.23;3.30;;;28.00;99.90;;;;;;4916989;29;20200;-82
2021/08/20 09:57:26;;;;;;;2.77;2.57;;;28.20;99.90;;;;;;4915400;29;20215;-82
2021/08/20 09:59:55;;;;;;;5.00;2.90;;;28.30;99.90;;;;;;4916935;29;20283;-80
2021/08/20 10:02:27;;;;;;;3.23;2.97;;;28.20;99.90;;;;;;4915587;29;20231;-80
2021/08/20 10:04:55;;;;;;;8.10;7.60;;;28.30;99.90;;;;;;4916529;29;20218;-81
2021/08/20 10:07:25;;;;;;;3.33;3.03;;;28.20;99.90;;;;;;4916476;29;20291;-81
2021/08/20 10:09:53;;;;;;;4.87;4.47;;;27.50;99.90;;;;;;4916857;29;20204;-81
2021/08/20 10:12:21;;;;;;;8.37;7.87;;;26.90;99.90;;;;;;4911596;29;20223;-81
2021/08/20 10:14:49;;;;;;;8.00;7.43;;;26.70;99.90;;;;;;4915199;29;20279;-82
2021/08/20 10:17:19;;;;;;;10.33;9.67;;;26.60;99.90;;;;;;4914300;29;20260;-80
2021/08/20 10:19:48;;;;;;;7.33;6.70;;;26.40;99.90;;;;;;4915506;29;20208;-82
2021/08/20 10:22:16;;;;;;;4.80;4.40;;;26.50;99.90;;;;;;4903925;29;20228;-82
2021/08/20 10:24:44;;;;;;;4.40;4.00;;;26.50;99.90;;;;;;4913902;29;20247;-82
2021/08/20 10:27:12;;;;;;;8.77;8.17;;;27.00;99.90;;;;;;4914333;29;20216;-81
2021/08/20 10:29:44;;;;;;;7.03;6.63;;;27.20;99.90;;;;;;4915872;29;20192;-82
2021/08/20 10:32:12;;;;;;;8.63;7.93;;;27.30;99.90;;;;;;4914571;29;20469;-82
2021/08/20 10:34:40;;;;;;;7.07;6.57;;;27.30;99.90;;;;;;4914951;29;20347;-82
2021/08/20 10:37:09;;;;;;;4.80;4.40;;;27.00;99.90;;;;;;4910990;29;20211;-82
2021/08/20 10:39:37;;;;;;;2.83;2.60;;;26.50;99.90;;;;;;4900454;29;20204;-81
2021/08/20 10:42:07;;;;;;;9.33;8.73;;;26.20;99.90;;;;;;4909198;29;20268;-81
2021/08/20 10:44:35;;;;;;;8.37;7.87;;;26.10;99.90;;;;;;4915569;29;20211;-82
2021/08/20 10:47:02;;;;;;;8.40;7.70;;;26.30;99.90;;;;;;4915469;29;20255;-81
2021/08/20 10:49:46;;;;;;;8.00;7.50;;;26.30;99.90;;;;;;4916087;29;20215;-81
2021/08/20 10:52:36;;;;;;;5.00;4.50;;;26.20;99.90;;;;;;4914673;29;20216;-80
2021/08/20 10:55:12;;;;;;;2.83;2.63;;;26.20;99.90;;;;;;4910569;29;20271;-81
2021/08/20 10:58:01;;;;;;;8.50;7.80;;;26.40;99.90;;;;;;4915739;29;20203;-81
2021/08/20 11:00:29;;;;;;;3.47;2.87;;;26.20;99.90;;;;;;4914392;29;20227;-80
2021/08/20 11:02:58;;;;;;;3.63;3.33;;;26.20;99.90;;;;;;4914348;29;20568;-81
2021/08/20 11:05:52;;;;;;;5.67;5.27;;;26.40;99.90;;;;;;4915390;29;20259;-81
2021/08/20 11:08:43;;;;;;;3.10;2.80;;;26.40;99.90;;;;;;4891562;29;20295;-81
2021/08/20 11:11:53;;;;;;;5.23;4.83;;;26.20;99.90;;;;;;4909294;29;20243;-81
2021/08/20 11:14:35;;;;;;;8.10;7.60;;;26.20;99.90;;;;;;4911018;29;20238;-80
2021/08/20 11:17:02;;;;;;;5.87;5.47;;;26.30;99.90;;;;;;4913004;29;20234;-81
2021/08/20 11:19:56;;;;;;;3.00;2.77;;;26.60;99.90;;;;;;4915552;29;20196;-81
2021/08/20 11:22:28;;;;;;;2.90;2.70;;;26.40;99.90;;;;;;4914058;29;20278;-81
2021/08/20 11:25:30;;;;;;;3.30;3.00;;;26.50;99.90;;;;;;4915515;29;20546;-81
2021/08/20 11:28:00;;;;;;;7.47;6.97;;;26.50;99.90;;;;;;4908450;29;20212;-80
2021/08/20 11:30:29;;;;;;;8.17;7.63;;;26.70;99.90;;;;;;4915907;29;20227;-81
2021/08/20 11:33:20;;;;;;;8.63;8.00;;;26.80;99.90;;;;;;4915715;29;20255;-81
2021/08/20 11:35:49;;;;;;;7.07;6.60;;;26.80;99.90;;;;;;4915540;29;20211;-82
2021/08/20 11:38:28;;;;;;;8.30;7.80;;;27.00;99.90;;;;;;4916806;29;20207;-82
2021/08/20 11:40:58;;;;;;;7.53;7.03;;;27.10;99.90;;;;;;4918969;29;20321;-82
2021/08/20 11:43:27;;;;;;;5.37;4.97;;;27.10;99.90;;;;;;4908338;29;20592;-83
2021/08/20 11:46:00;;;;;;;2.87;2.63;;;27.00;99.90;;;;;;4917753;29;20236;-82
2021/08/20 11:48:27;;;;;;;3.10;2.80;;;27.00;99.90;;;;;;4917066;29;20270;-83
2021/08/20 11:50:54;;;;;;;6.70;6.20;;;27.00;99.90;;;;;;4920655;29;20219;-80
2021/08/20 11:53:22;;;;;;;3.40;3.10;;;26.70;99.90;;;;;;4918388;29;20220;-82
2021/08/20 11:55:49;;;;;;;4.83;4.43;;;26.40;99.90;;;;;;4916582;29;20303;-82
2021/08/20 11:58:26;;;;;;;8.97;8.33;;;26.30;99.90;;;;;;4912658;29;20207;-81
2021/08/20 12:00:55;;;;;;;9.43;8.73;;;26.10;99.90;;;;;;4917024;29;20254;-82
2021/08/20 12:03:22;;;;;;;8.70;8.20;;;25.90;99.90;;;;;;4916874;29;20188;-82
2021/08/20 12:05:49;;;;;;;7.80;7.30;;;25.70;99.90;;;;;;4916587;29;20208;-81
2021/08/20 12:08:18;;;;;;;7.57;7.07;;;25.60;99.90;;;;;;4917827;29;20212;-82
2021/08/20 12:10:46;;;;;;;7.50;7.00;;;25.50;99.90;;;;;;4918303;29;20593;-81
2021/08/20 12:13:14;;;;;;;8.00;7.33;;;25.50;99.90;;;;;;4919118;29;20219;-82
2021/08/20 12:15:41;;;;;;;8.50;7.90;;;25.70;99.90;;;;;;4913650;29;20208;-81
2021/08/20 12:18:28;;;;;;;8.53;7.93;;;25.70;99.90;;;;;;4918535;29;20211;-80
2021/08/20 12:20:56;;;;;;;8.27;7.77;;;25.70;99.90;;;;;;4915317;29;20645;-80
2021/08/20 12:23:24;;;;;;;8.60;8.00;;;25.60;99.90;;;;;;4913428;29;20203;-81
2021/08/20 12:25:51;;;;;;;8.33;7.73;;;25.30;99.90;;;;;;4916029;29;20200;-81
2021/08/20 12:28:20;;;;;;;8.00;7.50;;;25.20;99.90;;;;;;4917125;29;20226;-82
2021/08/20 12:31:13;;;;;;;8.43;7.83;;;25.00;99.90;;;;;;4913522;29;20629;-82
2021/08/20 12:34:06;;;;;;;7.93;7.37;;;24.90;99.90;;;;;;4917492;29;20228;-83
2021/08/20 12:36:33;;;;;;;7.87;7.30;;;24.60;99.90;;;;;;4913184;29;20220;-82
2021/08/20 12:39:11;;;;;;;7.27;6.77;;;24.30;99.90;;;;;;4918083;29;20331;-83
2021/08/20 12:41:43;;;;;;;7.57;7.07;;;24.20;99.90;;;;;;4913756;29;20224;-80
2021/08/20 12:44:11;;;;;;;8.53;7.87;;;24.20;99.90;;;;;;4915224;29;20199;-82
2021/08/20 12:46:41;;;;;;;7.87;7.30;;;24.10;99.90;;;;;;4915240;29;20230;-82
2021/08/20 12:49:11;;;;;;;8.00;7.40;;;24.10;99.90;;;;;;4915912;29;20671;-82
2021/08/20 12:51:39;;;;;;;8.27;7.60;;;24.30;99.90;;;;;;4915992;29;20590;-83
2021/08/20 12:54:10;;;;;;;7.63;7.13;;;24.50;99.90;;;;;;4924548;29;20279;-82
2021/08/20 12:56:38;;;;;;;8.10;7.60;;;24.60;99.90;;;;;;4918242;29;20619;-83
2021/08/20 12:59:07;;;;;;;7.70;7.20;;;24.80;99.90;;;;;;4916847;29;20703;-83
2021/08/20 13:01:35;;;;;;;8.40;7.80;;;25.00;99.90;;;;;;4916740;29;20228;-82
2021/08/20 13:04:02;;;;;;;7.63;7.13;;;25.00;99.90;;;;;;4918559;29;20223;-81
2021/08/20 13:06:30;;;;;;;8.30;7.70;;;25.00;99.90;;;;;;4924903;29;20244;-82